sensor_id;sensor_type;location;lat;lon;timestamp;temperature;humidity
18339;DHT22;9295;44.484;11.240;2023-04-19T00:00:14;11.80;99.90
18339;DHT22;9295;44.484;11.240;2023-04-19T00:02:43;11.80;99.90
18339;DHT22;9295;44.484;11.240;2023-04-19T00:05:11;11.90;99.90
18339;DHT22;9295;44.484;11.240;2023-04-19T00:07:40;11.90;99.90
18339;DHT22;9295;44.484;11.240;2023-04-19T00:10:09;11.80;99.90
18339;DHT22;9295;44.484;11.240;2023-04-19T00:12:39;11.80;99.90
18339;DHT22;9295;44.484;11.240;2023-04-19T00:15:07;11.80;99.90
18339;DHT22;9295;44.484;11.240;2023-04-19T00:17:36;11.80;99.90
18339;DHT22;9295;44.484;11.240;2023-04-19T00:20:05;11.80;99.90
18339;DHT22;9295;44.484;11.240;2023-04-19T00:22:34;11.90;99.90
18339;DHT22;9295;44.484;11.240;2023-04-19T00:25:03;11.90;99.90
18339;DHT22;9295;44.484;11.240;2023-04-19T00:27:31;11.90;99.90
18339;DHT22;9295;44.484;11.240;2023-04-19T00:30:01;11.90;99.90
18339;DHT22;9295;44.484;11.240;2023-04-19T00:32:31;11.80;99.90
18339;DHT22;9295;44.484;11.240;2023-04-19T00:34:59;11.70;99.90
18339;DHT22;9295;44.484;11.240;2023-04-19T00:37:30;11.70;99.90
18339;DHT22;9295;44.484;11.240;2023-04-19T00:39:58;11.70;99.90
18339;DHT22;9295;44.484;11.240;2023-04-19T00:42:27;11.70;99.90
18339;DHT22;9295;44.484;11.240;2023-04-19T00:44:55;11.70;99.90
18339;DHT22;9295;44.484;11.240;2023-04-19T00:47:25;11.70;99.90
18339;DHT22;9295;44.484;11.240;2023-04-19T00:49:54;11.60;99.90
18339;DHT22;9295;44.484;11.240;2023-04-19T00:52:22;11.60;99.90
18339;DHT22;9295;44.484;11.240;2023-04-19T00:54:51;11.60;99.90
18339;DHT22;9295;44.484;11.240;2023-04-19T00:57:20;11.60;99.90
18339;DHT22;9295;44.484;11.240;2023-04-19T00:59:49;11.60;99.90
18339;DHT22;9295;44.484;11.240;2023-04-19T01:02:18;11.50;99.90
18339;DHT22;9295;44.484;11.240;2023-04-19T01:04:50;11.50;99.90
18339;DHT22;9295;44.484;11.240;2023-04-19T01:07:19;11.40;99.90
18339;DHT22;9295;44.484;11.240;2023-04-19T01:09:47;11.40;99.90
18339;DHT22;9295;44.484;11.240;2023-04-19T01:12:15;11.30;99.90
18339;DHT22;9295;44.484;11.240;2023-04-19T01:14:44;11.20;99.90
18339;DHT22;9295;44.484;11.240;2023-04-19T01:17:12;11.20;99.90
18339;DHT22;9295;44.484;11.240;2023-04-19T01:19:41;11.20;99.90
18339;DHT22;9295;44.484;11.240;2023-04-19T01:22:17;11.10;99.90
18339;DHT22;9295;44.484;11.240;2023-04-19T01:24:46;11.10;99.90
18339;DHT22;9295;44.484;11.240;2023-04-19T01:27:14;11.10;99.90
18339;DHT22;9295;44.484;11.240;2023-04-19T01:29:43;11.20;99.90
18339;DHT22;9295;44.484;11.240;2023-04-19T01:32:12;11.20;99.90
18339;DHT22;9295;44.484;11.240;2023-04-19T01:34:40;11.20;99.90
18339;DHT22;9295;44.484;11.240;2023-04-19T01:37:09;11.20;99.90
18339;DHT22;9295;44.484;11.240;2023-04-19T01:39:38;11.20;99.90
18339;DHT22;9295;44.484;11.240;2023-04-19T01:42:07;11.20;99.90
18339;DHT22;9295;44.484;11.240;2023-04-19T01:44:36;11.10;99.90
18339;DHT22;9295;44.484;11.240;2023-04-19T01:47:04;11.10;99.90
18339;DHT22;9295;44.484;11.240;2023-04-19T01:49:33;11.20;99.90
18339;DHT22;9295;44.484;11.240;2023-04-19T01:52:01;11.20;99.90
18339;DHT22;9295;44.484;11.240;2023-04-19T01:54:29;11.20;99.90
18339;DHT22;9295;44.484;11.240;2023-04-19T01:56:59;11.20;99.90
18339;DHT22;9295;44.484;11.240;2023-04-19T01:59:28;11.20;99.90
18339;DHT22;9295;44.484;11.240;2023-04-19T02:01:56;11.20;99.90
18339;DHT22;9295;44.484;11.240;2023-04-19T02:04:25;11.20;99.90
18339;DHT22;9295;44.484;11.240;2023-04-19T02:06:53;11.20;99.90
18339;DHT22;9295;44.484;11.240;2023-04-19T02:09:22;11.20;99.90
18339;DHT22;9295;44.484;11.240;2023-04-19T02:11:50;11.10;99.90
18339;DHT22;9295;44.484;11.240;2023-04-19T02:14:22;11.20;99.90
18339;DHT22;9295;44.484;11.240;2023-04-19T02:16:52;11.20;99.90
18339;DHT22;9295;44.484;11.240;2023-04-19T02:19:21;11.30;99.90
18339;DHT22;9295;44.484;11.240;2023-04-19T02:21:49;11.30;99.90
18339;DHT22;9295;44.484;11.240;2023-04-19T02:24:19;11.30;99.90
18339;DHT22;9295;44.484;11.240;2023-04-19T02:26:48;11.40;99.90
18339;DHT22;9295;44.484;11.240;2023-04-19T02:29:36;11.40;99.90
18339;DHT22;9295;44.484;11.240;2023-04-19T02:32:05;11.40;99.90
18339;DHT22;9295;44.484;11.240;2023-04-19T02:34:33;11.30;99.90
18339;DHT22;9295;44.484;11.240;2023-04-19T02:37:02;11.30;99.90
18339;DHT22;9295;44.484;11.240;2023-04-19T02:39:30;11.30;99.90
18339;DHT22;9295;44.484;11.240;2023-04-19T02:42:00;11.30;99.90
18339;DHT22;9295;44.484;11.240;2023-04-19T02:44:28;11.30;99.90
18339;DHT22;9295;44.484;11.240;2023-04-19T02:46:58;11.30;99.90
18339;DHT22;9295;44.484;11.240;2023-04-19T02:49:26;11.30;99.90
18339;DHT22;9295;44.484;11.240;2023-04-19T02:51:59;11.30;99.90
18339;DHT22;9295;44.484;11.240;2023-04-19T02:54:29;11.30;99.90
18339;DHT22;9295;44.484;11.240;2023-04-19T02:56:59;11.40;99.90
18339;DHT22;9295;44.484;11.240;2023-04-19T02:59:27;11.30;99.90
18339;DHT22;9295;44.484;11.240;2023-04-19T03:02:00;11.30;99.90
18339;DHT22;9295;44.484;11.240;2023-04-19T03:04:29;11.30;99.90
18339;DHT22;9295;44.484;11.240;2023-04-19T03:06:58;11.30;99.90
18339;DHT22;9295;44.484;11.240;2023-04-19T03:09:26;11.30;99.90
18339;DHT22;9295;44.484;11.240;2023-04-19T03:11:57;11.30;99.90
18339;DHT22;9295;44.484;11.240;2023-04-19T03:14:25;11.40;99.90
18339;DHT22;9295;44.484;11.240;2023-04-19T03:16:54;11.30;99.90
18339;DHT22;9295;44.484;11.240;2023-04-19T03:19:25;11.30;99.90
18339;DHT22;9295;44.484;11.240;2023-04-19T03:21:54;11.20;99.90
18339;DHT22;9295;44.484;11.240;2023-04-19T03:24:26;11.30;99.90
18339;DHT22;9295;44.484;11.240;2023-04-19T03:26:58;11.20;99.90
18339;DHT22;9295;44.484;11.240;2023-04-19T03:29:29;11.20;99.90
18339;DHT22;9295;44.484;11.240;2023-04-19T03:32:07;11.20;99.90
18339;DHT22;9295;44.484;11.240;2023-04-19T03:34:37;11.10;99.90
18339;DHT22;9295;44.484;11.240;2023-04-19T03:37:07;11.10;99.90
18339;DHT22;9295;44.484;11.240;2023-04-19T03:39:35;11.10;99.90
18339;DHT22;9295;44.484;11.240;2023-04-19T03:42:07;11.10;99.90
18339;DHT22;9295;44.484;11.240;2023-04-19T03:44:43;11.00;99.90
18339;DHT22;9295;44.484;11.240;2023-04-19T03:47:14;10.90;99.90
18339;DHT22;9295;44.484;11.240;2023-04-19T03:49:47;10.90;99.90
18339;DHT22;9295;44.484;11.240;2023-04-19T03:52:16;10.90;99.90
18339;DHT22;9295;44.484;11.240;2023-04-19T03:54:45;11.00;99.90
18339;DHT22;9295;44.484;11.240;2023-04-19T03:57:27;11.00;99.90
18339;DHT22;9295;44.484;11.240;2023-04-19T03:59:58;11.10;99.90
18339;DHT22;9295;44.484;11.240;2023-04-19T04:02:28;11.10;99.90
18339;DHT22;9295;44.484;11.240;2023-04-19T04:05:00;11.10;99.90
18339;DHT22;9295;44.484;11.240;2023-04-19T04:07:29;11.10;99.90
18339;DHT22;9295;44.484;11.240;2023-04-19T04:09:58;11.10;99.90
18339;DHT22;9295;44.484;11.240;2023-04-19T04:12:26;11.10;99.90
18339;DHT22;9295;44.484;11.240;2023-04-19T04:14:57;11.10;99.90
18339;DHT22;9295;44.484;11.240;2023-04-19T04:17:25;11.10;99.90
18339;DHT22;9295;44.484;11.240;2023-04-19T04:19:54;11.10;99.90
18339;DHT22;9295;44.484;11.240;2023-04-19T04:22:27;11.10;99.90
18339;DHT22;9295;44.484;11.240;2023-04-19T04:24:55;11.00;99.90
18339;DHT22;9295;44.484;11.240;2023-04-19T04:27:30;11.00;99.90
18339;DHT22;9295;44.484;11.240;2023-04-19T04:30:00;10.90;99.90
18339;DHT22;9295;44.484;11.240;2023-04-19T04:32:31;11.00;99.90
18339;DHT22;9295;44.484;11.240;2023-04-19T04:35:04;11.00;99.90
18339;DHT22;9295;44.484;11.240;2023-04-19T04:37:57;11.00;99.90
18339;DHT22;9295;44.484;11.240;2023-04-19T04:40:26;11.10;99.90
18339;DHT22;9295;44.484;11.240;2023-04-19T04:42:54;11.10;99.90
18339;DHT22;9295;44.484;11.240;2023-04-19T04:45:23;11.10;99.90
18339;DHT22;9295;44.484;11.240;2023-04-19T04:47:52;11.20;99.90
18339;DHT22;9295;44.484;11.240;2023-04-19T04:50:20;11.30;99.90
18339;DHT22;9295;44.484;11.240;2023-04-19T04:52:49;11.40;99.90
18339;DHT22;9295;44.484;11.240;2023-04-19T04:55:24;11.40;99.90
18339;DHT22;9295;44.484;11.240;2023-04-19T04:57:53;11.50;99.90
18339;DHT22;9295;44.484;11.240;2023-04-19T05:00:28;11.50;99.90
18339;DHT22;9295;44.484;11.240;2023-04-19T05:03:01;11.60;99.90
18339;DHT22;9295;44.484;11.240;2023-04-19T05:05:34;11.70;99.90
18339;DHT22;9295;44.484;11.240;2023-04-19T05:08:03;11.70;99.90
18339;DHT22;9295;44.484;11.240;2023-04-19T05:10:34;11.70;99.90
18339;DHT22;9295;44.484;11.240;2023-04-19T05:13:02;11.80;99.90
18339;DHT22;9295;44.484;11.240;2023-04-19T05:15:33;11.90;99.90
18339;DHT22;9295;44.484;11.240;2023-04-19T05:18:03;12.00;99.90
18339;DHT22;9295;44.484;11.240;2023-04-19T05:20:31;12.00;99.90
18339;DHT22;9295;44.484;11.240;2023-04-19T05:23:07;12.10;99.90
18339;DHT22;9295;44.484;11.240;2023-04-19T05:25:38;12.10;99.90
18339;DHT22;9295;44.484;11.240;2023-04-19T05:28:07;12.20;99.90
18339;DHT22;9295;44.484;11.240;2023-04-19T05:30:46;12.30;99.90
18339;DHT22;9295;44.484;11.240;2023-04-19T05:33:14;12.40;99.90
18339;DHT22;9295;44.484;11.240;2023-04-19T05:35:43;12.50;99.90
18339;DHT22;9295;44.484;11.240;2023-04-19T05:38:11;12.60;99.90
18339;DHT22;9295;44.484;11.240;2023-04-19T05:40:41;12.70;99.90
18339;DHT22;9295;44.484;11.240;2023-04-19T05:43:10;12.80;99.90
18339;DHT22;9295;44.484;11.240;2023-04-19T05:45:39;13.00;99.90
18339;DHT22;9295;44.484;11.240;2023-04-19T05:48:07;13.50;99.90
18339;DHT22;9295;44.484;11.240;2023-04-19T05:50:54;15.50;99.90
18339;DHT22;9295;44.484;11.240;2023-04-19T05:53:45;18.10;99.90
18339;DHT22;9295;44.484;11.240;2023-04-19T05:56:15;19.70;99.90
18339;DHT22;9295;44.484;11.240;2023-04-19T05:58:44;21.20;99.90
18339;DHT22;9295;44.484;11.240;2023-04-19T06:01:12;22.50;99.90
18339;DHT22;9295;44.484;11.240;2023-04-19T06:03:40;23.30;99.90
18339;DHT22;9295;44.484;11.240;2023-04-19T06:06:10;23.80;99.90
18339;DHT22;9295;44.484;11.240;2023-04-19T06:08:38;24.00;99.90
18339;DHT22;9295;44.484;11.240;2023-04-19T06:11:09;24.70;99.90
18339;DHT22;9295;44.484;11.240;2023-04-19T06:13:56;25.60;99.90
18339;DHT22;9295;44.484;11.240;2023-04-19T06:16:25;26.10;99.90
18339;DHT22;9295;44.484;11.240;2023-04-19T06:18:54;26.20;98.90
18339;DHT22;9295;44.484;11.240;2023-04-19T06:21:23;25.70;99.90
18339;DHT22;9295;44.484;11.240;2023-04-19T06:23:51;26.40;98.10
18339;DHT22;9295;44.484;11.240;2023-04-19T06:26:20;26.80;94.60
18339;DHT22;9295;44.484;11.240;2023-04-19T06:28:48;27.10;94.10
18339;DHT22;9295;44.484;11.240;2023-04-19T06:31:19;27.10;92.80
18339;DHT22;9295;44.484;11.240;2023-04-19T06:33:47;27.20;93.00
18339;DHT22;9295;44.484;11.240;2023-04-19T06:36:16;27.20;90.10
18339;DHT22;9295;44.484;11.240;2023-04-19T06:38:44;27.20;89.50
18339;DHT22;9295;44.484;11.240;2023-04-19T06:41:12;27.40;88.90
18339;DHT22;9295;44.484;11.240;2023-04-19T06:43:41;28.00;87.00
18339;DHT22;9295;44.484;11.240;2023-04-19T06:46:11;28.10;82.30
18339;DHT22;9295;44.484;11.240;2023-04-19T06:48:41;28.30;82.10
18339;DHT22;9295;44.484;11.240;2023-04-19T06:51:09;28.80;75.80
18339;DHT22;9295;44.484;11.240;2023-04-19T06:53:38;29.00;79.00
18339;DHT22;9295;44.484;11.240;2023-04-19T06:56:06;29.70;76.90
18339;DHT22;9295;44.484;11.240;2023-04-19T06:58:36;29.80;73.10
18339;DHT22;9295;44.484;11.240;2023-04-19T07:01:04;29.90;70.10
18339;DHT22;9295;44.484;11.240;2023-04-19T07:03:33;29.70;66.80
18339;DHT22;9295;44.484;11.240;2023-04-19T07:06:04;28.80;67.00
18339;DHT22;9295;44.484;11.240;2023-04-19T07:08:32;27.60;67.70
18339;DHT22;9295;44.484;11.240;2023-04-19T07:11:15;26.60;70.00
18339;DHT22;9295;44.484;11.240;2023-04-19T07:13:46;26.80;74.00
18339;DHT22;9295;44.484;11.240;2023-04-19T07:16:14;27.10;72.70
18339;DHT22;9295;44.484;11.240;2023-04-19T07:18:43;28.60;69.60
18339;DHT22;9295;44.484;11.240;2023-04-19T07:21:13;29.50;67.80
18339;DHT22;9295;44.484;11.240;2023-04-19T07:23:42;29.90;65.50
18339;DHT22;9295;44.484;11.240;2023-04-19T07:26:10;30.30;63.90
18339;DHT22;9295;44.484;11.240;2023-04-19T07:28:39;30.80;63.40
18339;DHT22;9295;44.484;11.240;2023-04-19T07:31:13;30.90;60.60
18339;DHT22;9295;44.484;11.240;2023-04-19T07:33:41;31.10;59.00
18339;DHT22;9295;44.484;11.240;2023-04-19T07:36:10;31.20;58.80
18339;DHT22;9295;44.484;11.240;2023-04-19T07:38:39;31.30;57.60
18339;DHT22;9295;44.484;11.240;2023-04-19T07:41:08;31.60;56.90
18339;DHT22;9295;44.484;11.240;2023-04-19T07:43:36;31.60;56.50
18339;DHT22;9295;44.484;11.240;2023-04-19T07:46:09;31.60;55.80
18339;DHT22;9295;44.484;11.240;2023-04-19T07:48:38;31.50;56.10
18339;DHT22;9295;44.484;11.240;2023-04-19T07:51:10;31.90;55.10
18339;DHT22;9295;44.484;11.240;2023-04-19T07:53:40;32.10;54.50
18339;DHT22;9295;44.484;11.240;2023-04-19T07:56:10;31.90;54.20
18339;DHT22;9295;44.484;11.240;2023-04-19T07:58:39;32.00;54.30
18339;DHT22;9295;44.484;11.240;2023-04-19T08:01:09;32.20;53.60
18339;DHT22;9295;44.484;11.240;2023-04-19T08:03:38;32.40;53.70
18339;DHT22;9295;44.484;11.240;2023-04-19T08:06:08;32.20;52.60
18339;DHT22;9295;44.484;11.240;2023-04-19T08:08:36;32.50;52.60
18339;DHT22;9295;44.484;11.240;2023-04-19T08:11:06;32.50;52.50
18339;DHT22;9295;44.484;11.240;2023-04-19T08:13:35;32.20;52.00
18339;DHT22;9295;44.484;11.240;2023-04-19T08:16:05;31.80;52.10
18339;DHT22;9295;44.484;11.240;2023-04-19T08:18:36;31.30;52.00
18339;DHT22;9295;44.484;11.240;2023-04-19T08:21:04;30.50;53.30
18339;DHT22;9295;44.484;11.240;2023-04-19T08:23:33;29.70;54.70
18339;DHT22;9295;44.484;11.240;2023-04-19T08:26:15;28.80;56.00
18339;DHT22;9295;44.484;11.240;2023-04-19T08:28:44;28.10;56.90
18339;DHT22;9295;44.484;11.240;2023-04-19T08:31:12;27.40;58.50
18339;DHT22;9295;44.484;11.240;2023-04-19T08:33:40;26.90;60.00
18339;DHT22;9295;44.484;11.240;2023-04-19T08:36:09;26.70;61.20
18339;DHT22;9295;44.484;11.240;2023-04-19T08:38:38;26.50;61.30
18339;DHT22;9295;44.484;11.240;2023-04-19T08:41:12;26.00;62.80
18339;DHT22;9295;44.484;11.240;2023-04-19T08:43:43;26.20;63.40
18339;DHT22;9295;44.484;11.240;2023-04-19T08:46:12;26.20;64.00
18339;DHT22;9295;44.484;11.240;2023-04-19T08:48:41;26.10;64.70
18339;DHT22;9295;44.484;11.240;2023-04-19T08:51:11;26.10;65.20
18339;DHT22;9295;44.484;11.240;2023-04-19T08:53:41;25.90;65.30
18339;DHT22;9295;44.484;11.240;2023-04-19T08:56:11;25.50;66.80
18339;DHT22;9295;44.484;11.240;2023-04-19T08:58:59;25.60;68.60
18339;DHT22;9295;44.484;11.240;2023-04-19T09:01:44;25.50;67.50
18339;DHT22;9295;44.484;11.240;2023-04-19T09:04:13;24.50;69.10
18339;DHT22;9295;44.484;11.240;2023-04-19T09:07:02;24.40;70.70
18339;DHT22;9295;44.484;11.240;2023-04-19T09:09:30;24.50;71.40
18339;DHT22;9295;44.484;11.240;2023-04-19T09:12:15;24.50;72.10
18339;DHT22;9295;44.484;11.240;2023-04-19T09:14:46;24.20;73.10
18339;DHT22;9295;44.484;11.240;2023-04-19T09:17:17;23.70;75.30
18339;DHT22;9295;44.484;11.240;2023-04-19T09:19:47;23.80;76.10
18339;DHT22;9295;44.484;11.240;2023-04-19T09:22:16;24.10;76.70
18339;DHT22;9295;44.484;11.240;2023-04-19T09:24:45;24.30;76.50
18339;DHT22;9295;44.484;11.240;2023-04-19T09:27:25;24.40;76.80
18339;DHT22;9295;44.484;11.240;2023-04-19T09:29:56;24.50;76.70
18339;DHT22;9295;44.484;11.240;2023-04-19T09:32:25;24.20;76.20
18339;DHT22;9295;44.484;11.240;2023-04-19T09:34:55;23.90;77.50
18339;DHT22;9295;44.484;11.240;2023-04-19T09:37:25;23.50;78.20
18339;DHT22;9295;44.484;11.240;2023-04-19T09:40:23;22.80;80.20
18339;DHT22;9295;44.484;11.240;2023-04-19T09:42:53;22.80;83.20
18339;DHT22;9295;44.484;11.240;2023-04-19T09:45:27;23.00;84.00
18339;DHT22;9295;44.484;11.240;2023-04-19T09:48:01;23.30;82.80
18339;DHT22;9295;44.484;11.240;2023-04-19T09:50:30;23.20;83.10
18339;DHT22;9295;44.484;11.240;2023-04-19T09:53:05;23.20;83.00
18339;DHT22;9295;44.484;11.240;2023-04-19T09:55:34;23.10;82.50
18339;DHT22;9295;44.484;11.240;2023-04-19T09:58:23;22.80;81.80
18339;DHT22;9295;44.484;11.240;2023-04-19T10:01:02;22.30;82.70
18339;DHT22;9295;44.484;11.240;2023-04-19T10:03:43;22.40;84.30
18339;DHT22;9295;44.484;11.240;2023-04-19T10:06:15;22.60;83.40
18339;DHT22;9295;44.484;11.240;2023-04-19T10:08:48;22.90;83.30
18339;DHT22;9295;44.484;11.240;2023-04-19T10:11:18;23.00;81.20
18339;DHT22;9295;44.484;11.240;2023-04-19T10:13:49;22.80;81.60
18339;DHT22;9295;44.484;11.240;2023-04-19T10:16:22;22.80;81.40
18339;DHT22;9295;44.484;11.240;2023-04-19T10:18:52;22.90;81.60
18339;DHT22;9295;44.484;11.240;2023-04-19T10:21:21;22.90;81.60
18339;DHT22;9295;44.484;11.240;2023-04-19T10:23:49;22.80;82.20
18339;DHT22;9295;44.484;11.240;2023-04-19T10:26:18;22.80;82.20
18339;DHT22;9295;44.484;11.240;2023-04-19T10:28:47;22.70;83.40
18339;DHT22;9295;44.484;11.240;2023-04-19T10:31:18;22.50;83.60
18339;DHT22;9295;44.484;11.240;2023-04-19T10:33:51;22.00;85.90
18339;DHT22;9295;44.484;11.240;2023-04-19T10:36:20;21.90;87.50
18339;DHT22;9295;44.484;11.240;2023-04-19T10:38:50;22.10;87.50
18339;DHT22;9295;44.484;11.240;2023-04-19T10:41:20;21.80;87.10
18339;DHT22;9295;44.484;11.240;2023-04-19T10:44:07;21.80;89.20
18339;DHT22;9295;44.484;11.240;2023-04-19T10:46:37;22.00;88.10
18339;DHT22;9295;44.484;11.240;2023-04-19T10:49:08;22.20;88.00
18339;DHT22;9295;44.484;11.240;2023-04-19T10:51:40;22.30;86.80
18339;DHT22;9295;44.484;11.240;2023-04-19T10:54:27;22.20;85.10
18339;DHT22;9295;44.484;11.240;2023-04-19T10:57:01;22.20;86.30
18339;DHT22;9295;44.484;11.240;2023-04-19T10:59:31;22.30;86.10
18339;DHT22;9295;44.484;11.240;2023-04-19T11:02:01;22.10;86.10
18339;DHT22;9295;44.484;11.240;2023-04-19T11:07:40;22.00;86.70
18339;DHT22;9295;44.484;11.240;2023-04-19T11:10:09;22.10;87.40
18339;DHT22;9295;44.484;11.240;2023-04-19T11:12:42;22.10;86.80
18339;DHT22;9295;44.484;11.240;2023-04-19T11:15:11;22.10;85.10
18339;DHT22;9295;44.484;11.240;2023-04-19T11:17:39;22.00;85.00
18339;DHT22;9295;44.484;11.240;2023-04-19T11:20:09;21.60;86.00
18339;DHT22;9295;44.484;11.240;2023-04-19T11:22:41;21.70;86.20
18339;DHT22;9295;44.484;11.240;2023-04-19T11:25:11;21.90;86.50
18339;DHT22;9295;44.484;11.240;2023-04-19T11:27:40;21.90;85.40
18339;DHT22;9295;44.484;11.240;2023-04-19T11:30:11;21.80;85.80
18339;DHT22;9295;44.484;11.240;2023-04-19T11:32:46;21.60;86.20
18339;DHT22;9295;44.484;11.240;2023-04-19T11:35:20;21.70;87.00
18339;DHT22;9295;44.484;11.240;2023-04-19T11:37:51;21.80;86.90
18339;DHT22;9295;44.484;11.240;2023-04-19T11:40:21;21.80;87.50
18339;DHT22;9295;44.484;11.240;2023-04-19T11:42:53;21.80;87.20
18339;DHT22;9295;44.484;11.240;2023-04-19T11:45:26;21.90;87.80
18339;DHT22;9295;44.484;11.240;2023-04-19T11:47:59;22.00;87.10
18339;DHT22;9295;44.484;11.240;2023-04-19T11:50:33;22.00;87.10
18339;DHT22;9295;44.484;11.240;2023-04-19T11:53:14;22.10;86.70
18339;DHT22;9295;44.484;11.240;2023-04-19T11:55:44;22.20;87.20
18339;DHT22;9295;44.484;11.240;2023-04-19T11:58:23;22.20;85.30
18339;DHT22;9295;44.484;11.240;2023-04-19T12:00:52;22.00;86.20
18339;DHT22;9295;44.484;11.240;2023-04-19T12:03:22;22.10;87.20
18339;DHT22;9295;44.484;11.240;2023-04-19T12:05:53;22.20;86.60
18339;DHT22;9295;44.484;11.240;2023-04-19T12:08:34;22.30;85.80
18339;DHT22;9295;44.484;11.240;2023-04-19T12:11:04;22.30;85.60
18339;DHT22;9295;44.484;11.240;2023-04-19T12:13:33;22.20;86.00
18339;DHT22;9295;44.484;11.240;2023-04-19T12:16:03;22.10;86.10
18339;DHT22;9295;44.484;11.240;2023-04-19T12:18:42;22.20;85.10
18339;DHT22;9295;44.484;11.240;2023-04-19T12:21:23;22.00;85.30
18339;DHT22;9295;44.484;11.240;2023-04-19T12:23:55;21.90;86.10
18339;DHT22;9295;44.484;11.240;2023-04-19T12:26:23;22.10;86.20
18339;DHT22;9295;44.484;11.240;2023-04-19T12:28:52;22.10;87.30
18339;DHT22;9295;44.484;11.240;2023-04-19T12:31:21;22.30;87.70
18339;DHT22;9295;44.484;11.240;2023-04-19T12:33:49;22.50;86.00
18339;DHT22;9295;44.484;11.240;2023-04-19T12:36:18;22.40;85.10
18339;DHT22;9295;44.484;11.240;2023-04-19T12:38:47;22.40;85.40
18339;DHT22;9295;44.484;11.240;2023-04-19T12:41:17;22.50;86.20
18339;DHT22;9295;44.484;11.240;2023-04-19T12:43:45;22.50;85.30
18339;DHT22;9295;44.484;11.240;2023-04-19T12:46:13;22.20;86.30
18339;DHT22;9295;44.484;11.240;2023-04-19T12:48:42;22.20;87.10
18339;DHT22;9295;44.484;11.240;2023-04-19T12:51:10;22.20;87.70
18339;DHT22;9295;44.484;11.240;2023-04-19T12:53:40;22.30;86.70
18339;DHT22;9295;44.484;11.240;2023-04-19T12:56:08;22.30;86.60
18339;DHT22;9295;44.484;11.240;2023-04-19T12:58:39;22.40;86.80
18339;DHT22;9295;44.484;11.240;2023-04-19T13:01:08;22.50;86.80
18339;DHT22;9295;44.484;11.240;2023-04-19T13:03:36;22.40;86.80
18339;DHT22;9295;44.484;11.240;2023-04-19T13:06:05;22.50;86.70
18339;DHT22;9295;44.484;11.240;2023-04-19T13:08:33;22.30;87.20
18339;DHT22;9295;44.484;11.240;2023-04-19T13:11:13;22.20;86.70
18339;DHT22;9295;44.484;11.240;2023-04-19T13:13:43;22.10;87.40
18339;DHT22;9295;44.484;11.240;2023-04-19T13:16:11;22.20;87.80
18339;DHT22;9295;44.484;11.240;2023-04-19T13:18:40;22.40;87.70
18339;DHT22;9295;44.484;11.240;2023-04-19T13:21:08;22.50;86.80
18339;DHT22;9295;44.484;11.240;2023-04-19T13:23:36;22.50;87.20
18339;DHT22;9295;44.484;11.240;2023-04-19T13:26:05;22.70;86.30
18339;DHT22;9295;44.484;11.240;2023-04-19T13:28:53;22.50;85.70
18339;DHT22;9295;44.484;11.240;2023-04-19T13:31:40;22.40;86.10
18339;DHT22;9295;44.484;11.240;2023-04-19T13:34:28;22.20;86.50
18339;DHT22;9295;44.484;11.240;2023-04-19T13:37:15;21.90;87.60
18339;DHT22;9295;44.484;11.240;2023-04-19T13:39:43;22.10;87.60
18339;DHT22;9295;44.484;11.240;2023-04-19T13:42:12;22.20;87.60
18339;DHT22;9295;44.484;11.240;2023-04-19T13:44:42;22.30;87.00
18339;DHT22;9295;44.484;11.240;2023-04-19T13:47:10;22.20;86.80
18339;DHT22;9295;44.484;11.240;2023-04-19T13:49:38;22.10;86.70
18339;DHT22;9295;44.484;11.240;2023-04-19T13:52:08;22.00;86.80
18339;DHT22;9295;44.484;11.240;2023-04-19T13:54:36;22.00;86.30
18339;DHT22;9295;44.484;11.240;2023-04-19T13:57:05;21.90;87.20
18339;DHT22;9295;44.484;11.240;2023-04-19T13:59:33;22.00;87.90
18339;DHT22;9295;44.484;11.240;2023-04-19T14:02:03;22.00;85.80
18339;DHT22;9295;44.484;11.240;2023-04-19T14:04:32;22.00;86.50
18339;DHT22;9295;44.484;11.240;2023-04-19T14:07:00;22.30;86.80
18339;DHT22;9295;44.484;11.240;2023-04-19T14:09:29;22.40;84.70
18339;DHT22;9295;44.484;11.240;2023-04-19T14:11:57;22.30;84.00
18339;DHT22;9295;44.484;11.240;2023-04-19T14:14:26;22.00;84.60
18339;DHT22;9295;44.484;11.240;2023-04-19T14:16:58;22.00;84.80
18339;DHT22;9295;44.484;11.240;2023-04-19T14:19:28;22.10;85.00
18339;DHT22;9295;44.484;11.240;2023-04-19T14:21:56;22.30;85.50
18339;DHT22;9295;44.484;11.240;2023-04-19T14:24:25;22.30;83.90
18339;DHT22;9295;44.484;11.240;2023-04-19T14:26:54;22.30;84.70
18339;DHT22;9295;44.484;11.240;2023-04-19T14:29:37;22.40;84.80
18339;DHT22;9295;44.484;11.240;2023-04-19T14:32:05;22.60;85.00
18339;DHT22;9295;44.484;11.240;2023-04-19T14:34:54;22.80;85.00
18339;DHT22;9295;44.484;11.240;2023-04-19T14:37:23;22.90;84.70
18339;DHT22;9295;44.484;11.240;2023-04-19T14:39:51;22.80;83.00
18339;DHT22;9295;44.484;11.240;2023-04-19T14:42:20;22.60;83.40
18339;DHT22;9295;44.484;11.240;2023-04-19T14:44:50;22.50;84.50
18339;DHT22;9295;44.484;11.240;2023-04-19T14:47:19;22.30;83.70
18339;DHT22;9295;44.484;11.240;2023-04-19T14:49:48;22.30;84.10
18339;DHT22;9295;44.484;11.240;2023-04-19T14:52:18;22.40;84.30
18339;DHT22;9295;44.484;11.240;2023-04-19T14:54:47;22.40;83.20
18339;DHT22;9295;44.484;11.240;2023-04-19T14:57:16;22.30;83.60
18339;DHT22;9295;44.484;11.240;2023-04-19T14:59:44;22.40;82.70
18339;DHT22;9295;44.484;11.240;2023-04-19T15:02:13;22.40;83.00
18339;DHT22;9295;44.484;11.240;2023-04-19T15:04:43;22.50;82.40
18339;DHT22;9295;44.484;11.240;2023-04-19T15:07:12;22.40;82.80
18339;DHT22;9295;44.484;11.240;2023-04-19T15:09:42;22.20;83.60
18339;DHT22;9295;44.484;11.240;2023-04-19T15:12:10;22.30;84.10
18339;DHT22;9295;44.484;11.240;2023-04-19T15:14:39;22.40;84.40
18339;DHT22;9295;44.484;11.240;2023-04-19T15:17:07;22.60;84.20
18339;DHT22;9295;44.484;11.240;2023-04-19T15:19:37;22.60;83.50
18339;DHT22;9295;44.484;11.240;2023-04-19T15:22:06;22.60;84.50
18339;DHT22;9295;44.484;11.240;2023-04-19T15:24:34;22.60;85.00
18339;DHT22;9295;44.484;11.240;2023-04-19T15:27:04;22.50;85.30
18339;DHT22;9295;44.484;11.240;2023-04-19T15:29:34;22.60;86.10
18339;DHT22;9295;44.484;11.240;2023-04-19T15:32:03;22.50;86.10
18339;DHT22;9295;44.484;11.240;2023-04-19T15:34:31;22.40;86.50
18339;DHT22;9295;44.484;11.240;2023-04-19T15:37:00;22.50;87.00
18339;DHT22;9295;44.484;11.240;2023-04-19T15:39:35;22.50;86.70
18339;DHT22;9295;44.484;11.240;2023-04-19T15:42:04;22.60;86.90
18339;DHT22;9295;44.484;11.240;2023-04-19T15:44:33;22.60;85.60
18339;DHT22;9295;44.484;11.240;2023-04-19T15:47:02;22.40;86.60
18339;DHT22;9295;44.484;11.240;2023-04-19T15:49:30;22.50;87.20
18339;DHT22;9295;44.484;11.240;2023-04-19T15:51:59;22.30;86.90
18339;DHT22;9295;44.484;11.240;2023-04-19T15:54:27;22.10;87.70